Buffalo, MN (55313)

10:26 AM CDT on April 19, 2015 (GMT -0500)
Buffalo Hills | | Change Station
CLOSE
Current Station
Personal Weather Station
Location: Buffalo, MN
Elevation: 1004 ft
Nearby Weather Stations

Elev 1004 ft 45.18 °N, 93.87 °W | Updated 12 seconds ago

Overcast
Overcast
52.6 °F
Feels Like 52.6 °F
N
3.8
Wind Variable Wind from ESE
Gusts 5.8 mph

Today
High -- | Low -- °F
--% Chance of Precip.
Yesterday
High -- | Low -- °F
Precip. -- in
6:24 AM 8:06 PM
New Moon, 1% visible
Pressure 29.66 in
Visibility 10.0 miles
Clouds Overcast 600 ft
Dew Point 53 °F
Humidity 100%
Rainfall 0.09 in
Snow Depth Not available.
UV 1 out of 12
Pollen 2.50 out of 12
Air Quality Not available.
Flu Activity Local Activity
METAR KCFE 191514Z AUTO 16005KT 10SM OVC006 11/10 A2966 RMK AO2 T01120095

More Conditions Fewer Conditions

Pressure 29.66 in
Visibility 10.0 miles
Clouds Overcast 600 ft
Dew Point 53 °F
Humidity 100%
Rainfall 0.09 in
Snow Depth Not available.
UV 1 out of 12
Pollen 2.50 out of 12
Air Quality Not available.
Flu Activity Local Activity
METAR KCFE 191514Z AUTO 16005KT 10SM OVC006 11/10 A2966 RMK AO2 T01120095

More Conditions Fewer Conditions

10-Day Weather Forecast

Almanac

Astronomy

Apr. 19, 2015 Rise Set
Actual Time
Civil Twilight
Nautical Twilight
Astronomical Twilight
Moon
Length of Visible Light
Length of Day
Tomorrow will be .
, % of the Moon is Illuminated

Today's Extremes

State Highs State Lows

Community

WunderPhotos

Upload Photos

1,814,834 photos uploaded!

WunderBlogs® & News

Nearby

Air Quality

  Air Quality AQ Index Pollutant
Not available.

Snow Depth

Station Depth Elevation

Earthquake Activity

City Distance Mag. Time & Date
Minimum magnitude displayed is 2.5.

Coastal Water Temperatures

Place Temperature

Stations

Nearby Weather Stations

Station Location Temp. Windchill Dew Point Humidity Wind Precip. Elev Updated Type